createdAt,value
2022-08-10T00:02:15.996Z,50.12
2022-08-10T00:04:45.252Z,49.95
2022-08-10T00:07:15.857Z,50.04
2022-08-10T00:09:50.117Z,49.93
2022-08-10T00:12:21.142Z,49.98
2022-08-10T00:14:50.675Z,50.06
2022-08-10T00:17:19.962Z,49.95
2022-08-10T00:20:03.830Z,50.12
2022-08-10T00:22:35.792Z,50.43
2022-08-10T00:25:18.810Z,50.30
2022-08-10T00:28:02.700Z,50.45
2022-08-10T00:30:33.259Z,50.57
2022-08-10T00:33:02.531Z,50.91
2022-08-10T00:35:31.799Z,51.19
2022-08-10T00:38:02.573Z,51.20
2022-08-10T00:40:37.066Z,51.48
2022-08-10T00:43:07.517Z,51.86
2022-08-10T00:45:36.926Z,52.40
2022-08-10T00:48:06.702Z,52.70
2022-08-10T00:50:36.223Z,53.44
2022-08-10T00:53:08.180Z,53.47
2022-08-10T00:57:10.067Z,53.68
2022-08-10T00:58:29.028Z,53.91
2022-08-10T01:00:58.334Z,53.90
2022-08-10T01:04:39.766Z,54.08
2022-08-10T01:06:40.146Z,54.04
2022-08-10T01:09:21.208Z,54.14
2022-08-10T01:12:37.550Z,54.33
2022-08-10T01:15:09.438Z,54.20
2022-08-10T01:17:53.818Z,54.24
2022-08-10T01:20:35.146Z,53.75
2022-08-10T01:23:46.366Z,54.09
2022-08-10T01:26:44.274Z,53.53
2022-08-10T01:29:50.907Z,53.96
2022-08-10T01:32:31.574Z,53.82
2022-08-10T01:35:13.219Z,53.65
2022-08-10T01:37:52.616Z,53.63
2022-08-10T01:40:28.172Z,53.88
2022-08-10T01:43:08.017Z,53.67
2022-08-10T01:45:46.732Z,54.29
2022-08-10T01:48:29.085Z,54.38
2022-08-10T01:51:10.464Z,54.46
2022-08-10T01:53:47.242Z,54.07
2022-08-10T01:56:18.407Z,54.29
2022-08-10T01:58:53.936Z,54.37
2022-08-10T02:01:29.710Z,54.33
2022-08-10T02:04:07.083Z,54.22
2022-08-10T02:06:41.659Z,54.22
2022-08-10T02:09:16.746Z,54.56
2022-08-10T02:12:05.646Z,54.25
2022-08-10T02:14:38.551Z,54.54
2022-08-10T02:18:00.389Z,54.76
2022-08-10T02:20:11.509Z,54.93
2022-08-10T02:22:44.668Z,54.58
2022-08-10T02:25:41.610Z,54.62
2022-08-10T02:28:07.667Z,54.98
2022-08-10T02:30:38.091Z,55.14
2022-08-10T02:33:10.086Z,55.19
2022-08-10T02:35:54.673Z,55.26
2022-08-10T02:38:58.654Z,55.87
2022-08-10T02:45:16.176Z,55.45
2022-08-10T02:45:18.781Z,55.30
2022-08-10T02:47:29.532Z,55.30
2022-08-10T02:50:28.566Z,55.18
2022-08-10T02:53:05.959Z,55.36
2022-08-10T02:55:43.982Z,55.34
2022-08-10T02:58:18.588Z,55.17
2022-08-10T03:00:55.252Z,55.19
2022-08-10T03:03:27.938Z,55.26
2022-08-10T03:06:01.740Z,55.61
2022-08-10T03:08:44.103Z,55.62
2022-08-10T03:12:35.315Z,55.18
2022-08-10T03:14:12.068Z,54.92
2022-08-10T03:16:42.612Z,55.08
2022-08-10T03:20:34.223Z,54.95
2022-08-10T03:22:06.310Z,55.08
2022-08-10T03:24:36.368Z,55.07
2022-08-10T03:27:06.811Z,54.96
2022-08-10T03:30:31.652Z,55.07
2022-08-10T03:32:27.003Z,55.16
2022-08-10T03:34:57.422Z,55.11
2022-08-10T03:37:28.758Z,55.28
2022-08-10T03:39:58.350Z,55.40
2022-08-10T03:42:29.773Z,55.46
2022-08-10T03:45:03.407Z,55.98
2022-08-10T03:47:35.254Z,56.25
2022-08-10T03:50:25.968Z,56.49
2022-08-10T03:52:57.042Z,56.83
2022-08-10T03:56:29.665Z,56.79
2022-08-10T03:58:16.574Z,57.23
2022-08-10T04:00:46.280Z,57.15
2022-08-10T04:03:15.956Z,57.21
2022-08-10T04:05:45.829Z,57.52
2022-08-10T04:08:16.645Z,57.62
2022-08-10T04:10:45.891Z,57.66
2022-08-10T04:13:15.031Z,57.67
2022-08-10T04:15:44.345Z,57.58
2022-08-10T04:18:13.624Z,57.78
2022-08-10T04:20:49.862Z,57.61
2022-08-10T04:23:25.076Z,57.95
2022-08-10T04:25:55.030Z,57.70
2022-08-10T04:28:25.410Z,57.79
2022-08-10T04:30:56.910Z,57.75
2022-08-10T04:33:27.640Z,57.63
2022-08-10T04:35:58.319Z,57.40
2022-08-10T04:38:31.130Z,57.39
2022-08-10T04:41:00.804Z,57.31
2022-08-10T04:43:29.938Z,57.04
2022-08-10T04:45:59.182Z,57.11
2022-08-10T04:48:40.982Z,56.93
2022-08-10T04:51:17.679Z,56.90
2022-08-10T04:54:03.846Z,57.11
2022-08-10T04:56:38.566Z,57.25
2022-08-10T04:59:09.823Z,57.15
2022-08-10T05:02:30.001Z,57.32
2022-08-10T05:04:33.765Z,57.30
2022-08-10T05:07:10.520Z,57.50
2022-08-10T05:10:00.478Z,57.62
2022-08-10T05:12:31.497Z,57.61
2022-08-10T05:15:00.605Z,57.68
2022-08-10T05:17:29.746Z,57.66
2022-08-10T05:20:04.560Z,57.79
2022-08-10T05:22:37.620Z,57.87
2022-08-10T05:25:14.851Z,58.44
2022-08-10T05:27:45.404Z,58.17
2022-08-10T05:30:18.736Z,58.07
2022-08-10T05:32:57.138Z,57.88
2022-08-10T05:35:55.453Z,58.17
2022-08-10T05:38:24.411Z,58.46
2022-08-10T05:40:57.135Z,58.57
2022-08-10T05:43:26.797Z,58.67
2022-08-10T05:46:18.286Z,58.86
2022-08-10T05:48:57.176Z,58.66
2022-08-10T05:51:36.150Z,59.00
2022-08-10T05:54:15.041Z,59.28
2022-08-10T05:56:56.844Z,59.26
2022-08-10T06:00:33.688Z,59.64
2022-08-10T06:02:41.622Z,59.77
2022-08-10T06:05:13.468Z,59.40
2022-08-10T06:07:47.926Z,59.61
2022-08-10T06:10:19.667Z,59.72
2022-08-10T06:13:26.929Z,59.69
2022-08-10T06:16:04.800Z,59.83
2022-08-10T06:18:34.570Z,59.76
2022-08-10T06:21:04.993Z,59.91
2022-08-10T06:23:35.506Z,59.96
2022-08-10T06:26:08.930Z,59.77
2022-08-10T06:28:56.048Z,60.09
2022-08-10T06:31:48.746Z,60.05
2022-08-10T06:34:25.879Z,59.70
2022-08-10T06:36:58.827Z,59.67
2022-08-10T06:39:36.504Z,59.83
2022-08-10T06:42:18.517Z,60.10
2022-08-10T06:44:58.005Z,59.95
2022-08-10T06:47:35.841Z,59.86
2022-08-10T06:50:13.663Z,59.91
2022-08-10T06:52:45.100Z,59.69
2022-08-10T06:55:18.795Z,59.50
2022-08-10T06:57:59.779Z,59.50
2022-08-10T07:00:34.572Z,59.08
2022-08-10T07:03:13.459Z,59.18
2022-08-10T07:05:51.384Z,58.89
2022-08-10T07:08:24.322Z,58.69
2022-08-10T07:10:54.588Z,58.62
2022-08-10T07:14:14.036Z,58.53
2022-08-10T07:16:17.810Z,58.24
2022-08-10T07:18:50.231Z,58.13
2022-08-10T07:21:20.289Z,58.09
2022-08-10T07:23:56.830Z,57.77
2022-08-10T07:26:32.210Z,57.77
2022-08-10T07:29:03.409Z,57.37
2022-08-10T07:31:56.194Z,57.20
2022-08-10T07:34:29.289Z,56.49
2022-08-10T07:37:06.059Z,55.93
2022-08-10T07:40:02.130Z,55.80
2022-08-10T07:42:31.279Z,56.03
2022-08-10T07:45:03.200Z,55.34
2022-08-10T07:47:53.558Z,53.40
2022-08-10T07:50:26.847Z,52.61
2022-08-10T07:53:02.749Z,50.41
2022-08-10T07:56:05.507Z,49.90
2022-08-10T07:58:31.300Z,47.29
2022-08-10T08:01:02.696Z,47.47
2022-08-10T08:03:35.210Z,44.81
2022-08-10T08:06:11.593Z,45.92
2022-08-10T08:08:45.747Z,45.52
2022-08-10T08:11:25.574Z,44.75
2022-08-10T08:13:57.013Z,44.54
2022-08-10T08:16:26.938Z,44.34
2022-08-10T08:19:24.040Z,42.87
2022-08-10T08:24:10.246Z,42.20
2022-08-10T08:24:41.058Z,42.20
2022-08-10T08:27:12.347Z,41.40
2022-08-10T08:29:44.329Z,40.33
2022-08-10T08:32:17.455Z,40.08
2022-08-10T08:34:49.564Z,40.33
2022-08-10T08:38:31.551Z,38.84
2022-08-10T08:40:15.680Z,38.02
2022-08-10T08:43:26.294Z,36.88
2022-08-10T08:46:28.881Z,35.90
2022-08-10T08:50:08.318Z,33.84
2022-08-10T08:52:29.289Z,34.92
2022-08-10T08:56:03.480Z,34.29
2022-08-10T08:58:21.705Z,34.56
2022-08-10T09:01:02.821Z,33.66
2022-08-10T09:04:19.841Z,32.35
2022-08-10T09:08:00.592Z,32.46
2022-08-10T09:10:22.318Z,33.06
2022-08-10T09:12:58.730Z,32.24
2022-08-10T09:15:41.699Z,30.79
2022-08-10T09:18:21.662Z,30.85
2022-08-10T09:21:00.221Z,31.01
2022-08-10T09:24:01.469Z,30.27
2022-08-10T09:26:43.955Z,30.36
2022-08-10T09:29:18.699Z,29.63
2022-08-10T09:33:06.214Z,30.24
2022-08-10T09:36:19.323Z,28.77
2022-08-10T09:38:04.945Z,28.64
2022-08-10T09:41:01.101Z,28.42
2022-08-10T09:43:56.204Z,26.94
2022-08-10T09:46:48.713Z,26.68
2022-08-10T09:49:53.003Z,27.23
2022-08-10T09:52:33.417Z,27.04
2022-08-10T09:55:14.558Z,25.83
2022-08-10T09:57:58.714Z,25.68
2022-08-10T10:00:41.764Z,26.31
2022-08-10T10:03:25.804Z,26.56
2022-08-10T10:06:06.542Z,26.09
2022-08-10T10:08:58.320Z,26.24
2022-08-10T10:12:05.130Z,25.93
2022-08-10T10:15:24.796Z,26.32
2022-08-10T10:18:23.350Z,26.04
2022-08-10T10:21:04.899Z,24.97
2022-08-10T10:24:15.840Z,25.58
2022-08-10T10:26:59.400Z,25.21
2022-08-10T10:29:56.941Z,25.05
2022-08-10T10:32:42.817Z,24.79
2022-08-10T10:35:24.625Z,24.87
2022-08-10T10:38:02.014Z,24.80
2022-08-10T10:40:46.506Z,24.62
2022-08-10T10:43:43.634Z,24.33
2022-08-10T10:46:32.065Z,23.82
2022-08-10T10:49:20.057Z,23.88
2022-08-10T10:52:04.049Z,23.73
2022-08-10T10:54:48.219Z,23.71
2022-08-10T10:58:00.378Z,23.38
2022-08-10T11:00:22.205Z,23.85
2022-08-10T11:03:09.640Z,23.93
2022-08-10T11:05:51.164Z,24.38
2022-08-10T11:08:28.734Z,24.01
2022-08-10T11:11:05.375Z,23.87
2022-08-10T11:14:25.726Z,23.44
2022-08-10T11:16:57.272Z,22.82
2022-08-10T11:20:02.851Z,22.56
2022-08-10T11:22:37.900Z,22.28
2022-08-10T11:25:21.128Z,21.72
2022-08-10T11:28:01.995Z,21.36
2022-08-10T11:30:42.409Z,21.39
2022-08-10T11:33:32.521Z,21.01
2022-08-10T11:36:17.845Z,21.43
2022-08-10T11:39:13.937Z,21.95
2022-08-10T11:42:09.303Z,21.76
2022-08-10T11:44:55.535Z,21.13
2022-08-10T11:47:42.890Z,20.93
2022-08-10T11:50:23.187Z,21.04
2022-08-10T11:53:06.435Z,21.27
2022-08-10T11:55:37.257Z,21.69
2022-08-10T11:58:27.419Z,21.69
2022-08-10T12:01:02.339Z,21.83
2022-08-10T12:03:35.242Z,21.85
2022-08-10T12:06:08.679Z,21.68
2022-08-10T12:10:07.520Z,22.00
2022-08-10T12:11:30.724Z,22.23
2022-08-10T12:14:21.284Z,22.44
2022-08-10T12:16:56.469Z,22.34
2022-08-10T12:19:59.520Z,22.22
2022-08-10T12:22:32.582Z,21.86
2022-08-10T12:25:07.072Z,21.38
2022-08-10T12:27:41.980Z,21.22
2022-08-10T12:30:18.537Z,21.47
2022-08-10T12:32:57.782Z,21.46
2022-08-10T12:35:38.425Z,21.76
2022-08-10T12:38:16.224Z,21.62
2022-08-10T12:40:49.833Z,21.89
2022-08-10T12:44:05.051Z,21.97
2022-08-10T12:46:27.399Z,21.21
2022-08-10T12:49:08.212Z,21.75
2022-08-10T12:51:49.481Z,21.86
2022-08-10T12:54:31.833Z,21.72
2022-08-10T12:57:06.834Z,21.81
2022-08-10T12:59:43.253Z,21.61
2022-08-10T13:02:24.465Z,21.49
2022-08-10T13:04:58.333Z,20.95
2022-08-10T13:08:24.747Z,20.91
2022-08-10T13:10:24.326Z,20.44
2022-08-10T13:12:58.115Z,20.68
2022-08-10T13:15:50.665Z,20.41
2022-08-10T13:18:30.563Z,21.24
2022-08-10T13:21:19.995Z,20.94
2022-08-10T13:24:03.382Z,20.98
2022-08-10T13:27:24.738Z,21.03
2022-08-10T13:29:38.768Z,21.45
2022-08-10T13:32:12.485Z,21.52
2022-08-10T13:34:47.439Z,21.27
2022-08-10T13:37:20.249Z,21.19
2022-08-10T13:39:59.393Z,20.58
2022-08-10T13:42:34.993Z,20.74
2022-08-10T13:45:14.715Z,20.90
2022-08-10T13:47:48.808Z,21.03
2022-08-10T13:50:35.681Z,21.44
2022-08-10T13:53:14.720Z,21.26
2022-08-10T13:55:55.437Z,20.47
2022-08-10T13:58:30.129Z,20.79
2022-08-10T14:01:01.740Z,20.86
2022-08-10T14:03:37.773Z,20.70
2022-08-10T14:06:13.575Z,20.75
2022-08-10T14:08:50.299Z,20.80
2022-08-10T14:11:23.173Z,21.13
2022-08-10T14:13:56.817Z,20.85
2022-08-10T14:16:26.656Z,21.31
2022-08-10T14:19:01.088Z,21.09
2022-08-10T14:21:33.607Z,21.30
2022-08-10T14:24:06.058Z,20.77
2022-08-10T14:26:35.523Z,20.95
2022-08-10T14:29:09.567Z,21.34
2022-08-10T14:32:00.611Z,21.70
2022-08-10T14:36:16.190Z,21.38
2022-08-10T14:37:37.900Z,21.58
2022-08-10T14:40:12.871Z,21.36
2022-08-10T14:42:50.422Z,21.22
2022-08-10T14:45:27.747Z,21.28
2022-08-10T14:48:07.289Z,20.95
2022-08-10T14:50:38.010Z,20.53
2022-08-10T14:53:29.553Z,21.13
2022-08-10T14:56:05.948Z,20.81
2022-08-10T14:58:38.925Z,21.06
2022-08-10T15:02:00.667Z,21.28
2022-08-10T15:04:24.228Z,21.19
2022-08-10T15:06:56.709Z,21.67
2022-08-10T15:10:00.314Z,21.49
2022-08-10T15:12:27.677Z,21.99
2022-08-10T15:15:01.888Z,21.45
2022-08-10T15:17:35.128Z,21.14
2022-08-10T15:20:14.914Z,21.38
2022-08-10T15:22:50.611Z,21.36
2022-08-10T15:25:26.381Z,21.43
2022-08-10T15:28:05.457Z,21.17
2022-08-10T15:30:43.888Z,21.35
2022-08-10T15:34:01.891Z,21.43
2022-08-10T15:36:43.712Z,21.39
2022-08-10T15:40:25.443Z,21.59
2022-08-10T15:42:22.898Z,21.96
2022-08-10T15:44:56.643Z,21.95
2022-08-10T15:47:45.438Z,22.08
2022-08-10T15:50:22.691Z,22.40
2022-08-10T15:53:02.831Z,22.63
2022-08-10T15:55:44.248Z,22.48
2022-08-10T15:58:39.739Z,22.42
2022-08-10T16:02:04.061Z,22.82
2022-08-10T16:04:09.042Z,23.16
2022-08-10T16:06:45.239Z,23.02
2022-08-10T16:10:22.803Z,23.17
2022-08-10T16:12:18.528Z,23.10
2022-08-10T16:15:08.196Z,24.07
2022-08-10T16:17:55.304Z,24.15
2022-08-10T16:20:33.462Z,24.27
2022-08-10T16:23:27.196Z,24.74
2022-08-10T16:26:04.663Z,25.00
2022-08-10T16:28:52.326Z,25.41
2022-08-10T16:31:26.795Z,25.60
2022-08-10T16:34:00.368Z,26.46
2022-08-10T16:36:39.272Z,26.73
2022-08-10T16:39:15.745Z,27.31
2022-08-10T16:42:09.173Z,27.82
2022-08-10T16:44:42.792Z,27.62
2022-08-10T16:47:14.279Z,27.50
2022-08-10T16:49:45.554Z,27.65
2022-08-10T16:52:17.212Z,27.44
2022-08-10T16:54:51.785Z,27.00
2022-08-10T16:57:27.352Z,27.03
2022-08-10T16:59:57.909Z,27.29
2022-08-10T17:02:30.844Z,27.92
2022-08-10T17:05:01.856Z,28.64
2022-08-10T17:07:32.927Z,28.54
2022-08-10T17:10:08.114Z,28.91
2022-08-10T17:12:40.629Z,29.15
2022-08-10T17:15:11.910Z,29.40
2022-08-10T17:17:51.833Z,29.56
2022-08-10T17:20:30.979Z,28.89
2022-08-10T17:23:07.044Z,28.63
2022-08-10T17:25:46.399Z,28.71
2022-08-10T17:28:35.104Z,29.11
2022-08-10T17:31:24.087Z,29.02
2022-08-10T17:34:11.261Z,29.30
2022-08-10T17:36:45.307Z,29.56
2022-08-10T17:39:16.191Z,30.10
2022-08-10T17:41:52.354Z,30.38
2022-08-10T17:44:23.639Z,30.22
2022-08-10T17:46:53.745Z,30.72
2022-08-10T17:49:26.454Z,30.88
2022-08-10T17:51:57.665Z,31.33
2022-08-10T17:54:32.620Z,31.69
2022-08-10T17:57:08.079Z,31.96
2022-08-10T17:59:39.269Z,32.32
2022-08-10T18:02:11.970Z,32.56
2022-08-10T18:04:51.371Z,33.41
2022-08-10T18:07:29.334Z,33.02
2022-08-10T18:10:00.005Z,32.85
2022-08-10T18:12:38.671Z,32.94
2022-08-10T18:15:14.224Z,32.96
2022-08-10T18:17:49.554Z,32.52
2022-08-10T18:20:28.205Z,32.28
2022-08-10T18:22:58.635Z,32.05
2022-08-10T18:25:33.992Z,32.60
2022-08-10T18:28:06.637Z,32.44
2022-08-10T18:30:52.045Z,32.43
2022-08-10T18:33:29.668Z,32.20
2022-08-10T18:36:04.410Z,32.38
2022-08-10T18:38:38.630Z,32.39
2022-08-10T18:41:12.343Z,32.40
2022-08-10T18:44:06.116Z,32.27
2022-08-10T18:46:47.327Z,32.30
2022-08-10T18:49:28.436Z,32.45
2022-08-10T18:52:03.386Z,32.47
2022-08-10T18:54:43.875Z,32.74
2022-08-10T18:57:29.062Z,33.09
2022-08-10T19:00:10.277Z,33.51
2022-08-10T19:03:31.520Z,33.79
2022-08-10T19:06:33.347Z,33.88
2022-08-10T19:09:46.419Z,34.29
2022-08-10T19:12:40.479Z,34.39
2022-08-10T19:15:29.182Z,34.58
2022-08-10T19:18:18.557Z,34.68
2022-08-10T19:20:55.417Z,34.78
2022-08-10T19:23:54.404Z,34.94
2022-08-10T19:26:44.664Z,35.10
2022-08-10T19:30:10.142Z,35.30
2022-08-10T19:32:30.567Z,35.30
2022-08-10T19:35:09.000Z,35.67
2022-08-10T19:38:00.643Z,35.56
2022-08-10T19:40:44.749Z,36.14
2022-08-10T19:43:30.744Z,35.83
2022-08-10T19:46:32.998Z,36.19
2022-08-10T19:49:16.232Z,36.50
2022-08-10T19:51:57.073Z,36.00
2022-08-10T19:54:35.188Z,36.49
2022-08-10T19:57:14.149Z,36.57
2022-08-10T20:00:18.946Z,37.09
2022-08-10T20:03:15.045Z,36.81
2022-08-10T20:06:19.495Z,36.92
2022-08-10T20:08:57.455Z,37.18
2022-08-10T20:11:48.639Z,36.92
2022-08-10T20:14:23.825Z,37.01
2022-08-10T20:17:01.719Z,37.21
2022-08-10T20:19:53.097Z,37.51
2022-08-10T20:22:29.919Z,38.24
2022-08-10T20:25:09.140Z,38.31
2022-08-10T20:28:06.933Z,38.90
2022-08-10T20:30:39.258Z,38.86
2022-08-10T20:33:18.887Z,39.74
2022-08-10T20:35:53.480Z,39.50
2022-08-10T20:38:29.729Z,39.72
2022-08-10T20:41:13.434Z,40.23
2022-08-10T20:44:01.787Z,40.32
2022-08-10T20:46:44.748Z,40.34
2022-08-10T20:49:29.807Z,41.05
2022-08-10T20:52:02.919Z,40.68
2022-08-10T20:54:37.832Z,41.41
2022-08-10T20:57:55.758Z,41.13
2022-08-10T21:00:43.179Z,41.40
2022-08-10T21:04:04.116Z,41.10
2022-08-10T21:07:28.326Z,41.38
2022-08-10T21:10:07.506Z,41.38
2022-08-10T21:12:57.309Z,42.23
2022-08-10T21:15:47.442Z,42.04
2022-08-10T21:18:34.907Z,42.36
2022-08-10T21:21:37.628Z,43.13
2022-08-10T21:24:21.371Z,43.28
2022-08-10T21:27:08.206Z,43.50
2022-08-10T21:29:54.768Z,43.63
2022-08-10T21:32:41.819Z,43.73
2022-08-10T21:35:36.848Z,43.96
2022-08-10T21:38:19.598Z,43.82
2022-08-10T21:41:57.835Z,44.08
2022-08-10T21:45:08.163Z,44.33
2022-08-10T21:48:17.320Z,44.15
2022-08-10T21:51:24.062Z,44.39
2022-08-10T21:54:22.719Z,44.15
2022-08-10T21:57:24.281Z,45.08
2022-08-10T22:03:25.537Z,45.27
2022-08-10T22:06:28.554Z,45.99
2022-08-10T22:09:24.176Z,46.99
2022-08-10T22:12:30.760Z,47.34
2022-08-10T22:16:03.759Z,48.04
2022-08-10T22:18:53.875Z,47.96
2022-08-10T22:22:05.962Z,47.77
2022-08-10T22:25:17.609Z,48.28
2022-08-10T22:28:17.635Z,47.88
2022-08-10T22:31:31.201Z,47.86
2022-08-10T22:34:43.892Z,48.53
2022-08-10T22:37:46.325Z,48.89
2022-08-10T22:40:39.432Z,48.10
2022-08-10T22:43:35.801Z,48.03
2022-08-10T22:46:32.759Z,47.89
2022-08-10T22:49:01.162Z,48.16
2022-08-10T22:51:54.207Z,48.93
2022-08-10T22:54:45.403Z,49.38
2022-08-10T22:57:34.281Z,48.50
2022-08-10T23:00:16.857Z,48.92
2022-08-10T23:02:57.561Z,48.88
2022-08-10T23:05:39.317Z,49.12
2022-08-10T23:08:29.791Z,49.08
2022-08-10T23:11:06.636Z,49.15
2022-08-10T23:13:43.188Z,48.96
2022-08-10T23:16:38.853Z,49.37
2022-08-10T23:19:18.917Z,49.35
2022-08-10T23:22:04.368Z,49.24
2022-08-10T23:24:40.872Z,49.48
2022-08-10T23:27:38.001Z,49.37
2022-08-10T23:30:10.530Z,49.76
2022-08-10T23:32:50.578Z,49.33
2022-08-10T23:36:31.313Z,49.74
2022-08-10T23:38:22.191Z,49.81
2022-08-10T23:40:57.264Z,49.77
2022-08-10T23:43:46.657Z,49.95
2022-08-10T23:46:24.041Z,50.09
2022-08-10T23:48:57.833Z,49.99
2022-08-10T23:51:54.583Z,50.16
2022-08-10T23:54:24.690Z,50.27
2022-08-10T23:57:02.974Z,50.38
2022-08-10T23:59:33.479Z,50.09
